Time;durP1;ratioP1;P1;durP2;ratioP2;P2;SDS_P1;SDS_P2;PMS_P1;PMS_P2;Temp;Humidity;BMP_temperature;BMP_pressure;BME280_temperature;BME280_humidity;BME280_pressure;Samples;Min_cycle;Max_cycle;Signal;HPM_P1;HPM_P2
2023/08/12 00:00:15;;;;;;;;;6.25;5.00;;;;;22.02;73.99;101243.72;5093291;27;45315;-68
2023/08/12 00:02:41;;;;;;;;;3.75;3.00;;;;;22.02;74.00;101233.91;5090561;27;64634;-67
2023/08/12 00:05:07;;;;;;;;;6.25;4.50;;;;;22.01;74.38;101240.22;5089767;27;45545;-68
2023/08/12 00:07:33;;;;;;;;;6.75;5.75;;;;;21.98;74.08;101233.25;5094692;27;45481;-68
2023/08/12 00:10:03;;;;;;;;;6.75;6.00;;;;;22.00;74.23;101226.00;5095876;27;45950;-67
2023/08/12 00:12:31;;;;;;;;;8.25;4.50;;;;;21.99;75.07;101220.78;5099110;27;45414;-68
2023/08/12 00:14:56;;;;;;;;;4.75;3.00;;;;;21.96;74.53;101213.03;5093780;27;45390;-68
2023/08/12 00:17:24;;;;;;;;;4.00;3.75;;;;;21.96;74.62;101210.34;5094173;27;47088;-68
2023/08/12 00:19:49;;;;;;;;;4.00;4.00;;;;;21.94;74.73;101207.78;5077479;27;45410;-68
2023/08/12 00:22:15;;;;;;;;;5.50;4.75;;;;;21.92;75.27;101198.19;5101126;27;60951;-68
2023/08/12 00:24:40;;;;;;;;;5.00;4.00;;;;;21.94;74.40;101199.78;5092647;27;45520;-68
2023/08/12 00:27:06;;;;;;;;;5.50;4.75;;;;;21.93;74.61;101199.91;5083194;27;46151;-68
2023/08/12 00:29:32;;;;;;;;;7.00;5.00;;;;;21.90;75.02;101198.31;5094099;27;45935;-68
2023/08/12 00:31:57;;;;;;;;;5.50;3.50;;;;;21.90;75.07;101195.63;5091954;27;45411;-67
2023/08/12 00:34:23;;;;;;;;;5.50;5.00;;;;;21.90;74.92;101190.31;5083929;27;47169;-68
2023/08/12 00:36:48;;;;;;;;;8.00;6.50;;;;;21.92;74.85;101187.50;5087358;27;65437;-68
2023/08/12 00:39:13;;;;;;;;;5.00;3.50;;;;;21.92;75.32;101176.84;5091090;27;69947;-68
2023/08/12 00:41:39;;;;;;;;;5.75;4.00;;;;;21.91;74.67;101184.00;5089148;27;45333;-67
2023/08/12 00:44:04;;;;;;;;;7.75;6.00;;;;;21.92;74.70;101188.38;5081431;27;63077;-66
2023/08/12 00:46:30;;;;;;;;;7.00;5.00;;;;;21.90;74.55;101189.44;5063355;27;46976;-67
2023/08/12 00:48:55;;;;;;;;;5.50;4.75;;;;;21.90;74.78;101184.09;5081240;27;61868;-68
2023/08/12 00:51:21;;;;;;;;;6.25;5.25;;;;;21.88;75.10;101181.53;5093742;27;58561;-68
2023/08/12 00:53:47;;;;;;;;;8.75;5.00;;;;;21.91;75.36;101185.81;5081324;27;45411;-67
2023/08/12 00:56:13;;;;;;;;;5.00;5.00;;;;;21.90;75.36;101192.97;5069261;28;73064;-68
2023/08/12 00:58:39;;;;;;;;;7.00;4.50;;;;;21.92;75.11;101195.50;5089537;27;58366;-68
2023/08/12 01:01:04;;;;;;;;;7.25;5.50;;;;;21.87;75.74;101185.19;5063743;28;45347;-67
2023/08/12 01:03:30;;;;;;;;;6.25;4.25;;;;;21.90;77.13;101187.66;5076102;28;64039;-67
2023/08/12 01:05:55;;;;;;;;;7.00;6.00;;;;;21.90;76.27;101186.78;5088495;27;59725;-67
2023/08/12 01:08:21;;;;;;;;;7.25;5.00;;;;;21.88;76.45;101180.69;5093343;27;73126;-67
2023/08/12 01:10:52;;;;;;;;;5.75;4.25;;;;;21.88;75.92;101188.69;5081797;27;45422;-68
2023/08/12 01:13:33;;;;;;;;;136.00;123.75;;;;;21.87;76.33;101189.63;5077849;28;45437;-68
2023/08/12 01:16:01;;;;;;;;;62.00;46.25;;;;;21.87;76.24;101187.84;5063807;27;46124;-68
2023/08/12 01:18:27;;;;;;;;;55.25;41.75;;;;;21.89;76.48;101177.94;5093489;27;45510;-67
2023/08/12 01:20:53;;;;;;;;;5.25;5.25;;;;;21.87;76.42;101171.84;5086267;27;45574;-68
2023/08/12 01:23:20;;;;;;;;;4.50;3.75;;;;;21.86;76.54;101166.63;5081718;27;45484;-67
2023/08/12 01:25:45;;;;;;;;;6.25;5.00;;;;;21.84;77.11;101180.06;5085517;27;46184;-67
2023/08/12 01:28:10;;;;;;;;;5.50;4.25;;;;;21.80;76.69;101175.91;5080057;27;66773;-67
2023/08/12 01:30:42;;;;;;;;;6.75;4.00;;;;;21.78;77.46;101180.47;5079094;27;65990;-67
2023/08/12 01:33:34;;;;;;;;;8.00;5.50;;;;;21.73;78.15;101179.94;5085296;27;45299;-67
2023/08/12 01:36:17;;;;;;;;;9.25;5.00;;;;;21.68;78.19;101168.72;5092540;27;45622;-67
2023/08/12 01:38:43;;;;;;;;;5.25;3.75;;;;;21.65;77.79;101177.75;5091539;27;45361;-67
2023/08/12 01:41:10;;;;;;;;;4.00;4.00;;;;;21.63;78.36;101185.00;5079336;28;45585;-67
2023/08/12 01:43:35;;;;;;;;;8.00;5.00;;;;;21.63;78.63;101169.03;5080035;27;45251;-67
2023/08/12 01:46:01;;;;;;;;;5.00;4.50;;;;;21.63;78.95;101176.16;5091623;27;48423;-68
2023/08/12 01:48:26;;;;;;;;;4.75;3.00;;;;;21.58;79.89;101173.78;5069632;27;59878;-67
2023/08/12 01:50:52;;;;;;;;;6.25;5.00;;;;;21.55;79.00;101171.38;5083857;27;59942;-67
2023/08/12 01:53:17;;;;;;;;;4.00;4.00;;;;;21.49;79.76;101153.09;5095331;27;70739;-67
2023/08/12 01:55:44;;;;;;;;;4.00;4.00;;;;;21.44;79.74;101156.03;5079907;27;73192;-67
2023/08/12 01:58:09;;;;;;;;;6.75;4.75;;;;;21.40;79.20;101154.53;5087420;27;45543;-68
2023/08/12 02:00:34;;;;;;;;;3.00;2.75;;;;;21.39;79.68;101153.69;5082526;27;45398;-68
2023/08/12 02:03:00;;;;;;;;;6.25;4.25;;;;;21.41;79.64;101151.78;5081340;27;73263;-67
2023/08/12 02:05:25;;;;;;;;;4.75;3.50;;;;;21.39;79.33;101144.84;5095092;27;45347;-67
2023/08/12 02:07:51;;;;;;;;;5.50;3.75;;;;;21.39;79.64;101143.03;5083288;27;45184;-67
2023/08/12 02:10:16;;;;;;;;;5.00;3.00;;;;;21.39;79.38;101139.53;5083910;27;45519;-67
2023/08/12 02:12:41;;;;;;;;;4.00;3.50;;;;;21.41;79.96;101148.28;5091392;27;68774;-67
2023/08/12 02:15:07;;;;;;;;;5.25;3.00;;;;;21.36;79.50;101140.56;5093712;27;45488;-67
2023/08/12 02:17:32;;;;;;;;;6.75;3.00;;;;;21.41;79.92;101141.13;5080599;27;45325;-67
2023/08/12 02:19:58;;;;;;;;;5.50;2.25;;;;;21.40;80.17;101141.22;5089226;27;48518;-68
2023/08/12 02:22:23;;;;;;;;;3.00;2.75;;;;;21.41;79.71;101158.91;5079531;27;63573;-67
2023/08/12 02:24:48;;;;;;;;;3.75;2.75;;;;;21.38;79.73;101154.63;5082864;27;72470;-68
2023/08/12 02:27:14;;;;;;;;;2.25;2.25;;;;;21.36;80.86;101148.56;5085507;27;45445;-67
2023/08/12 02:29:39;;;;;;;;;4.00;3.00;;;;;21.37;80.61;101141.41;5093197;27;59481;-67
2023/08/12 02:32:05;;;;;;;;;4.75;3.00;;;;;21.35;79.99;101138.84;5094931;27;45523;-67
2023/08/12 02:34:30;;;;;;;;;3.25;2.50;;;;;21.37;80.04;101144.09;5080385;27;47138;-67
2023/08/12 02:36:55;;;;;;;;;2.25;2.00;;;;;21.38;80.17;101151.13;5095681;27;65954;-67
2023/08/12 02:39:21;;;;;;;;;3.25;2.00;;;;;21.35;80.30;101138.84;5098907;27;58392;-67
2023/08/12 02:41:46;;;;;;;;;4.00;2.00;;;;;21.38;80.21;101140.47;5084396;27;56252;-67
2023/08/12 02:44:12;;;;;;;;;3.25;2.00;;;;;21.37;80.90;101133.44;5091748;27;46192;-67
2023/08/12 02:46:37;;;;;;;;;2.00;1.25;;;;;21.36;80.57;101142.38;5097298;27;45211;-68
2023/08/12 02:49:02;;;;;;;;;2.50;1.00;;;;;21.34;81.34;101142.50;5098850;27;45221;-67
2023/08/12 02:51:28;;;;;;;;;2.75;2.00;;;;;21.34;80.59;101138.97;5099687;27;57984;-67
2023/08/12 02:53:53;;;;;;;;;1.00;1.00;;;;;21.35;80.84;101143.34;5090247;27;68326;-68
2023/08/12 02:56:18;;;;;;;;;1.00;1.00;;;;;21.34;80.70;101144.31;5092743;27;45401;-67
2023/08/12 02:58:44;;;;;;;;;1.75;1.00;;;;;21.36;80.95;101140.56;5088276;27;45412;-67
2023/08/12 03:01:09;;;;;;;;;3.50;2.00;;;;;21.38;81.15;101145.81;5081394;27;45428;-67
2023/08/12 03:03:34;;;;;;;;;3.00;2.00;;;;;21.39;81.00;101139.53;5093633;27;45219;-67
2023/08/12 03:06:00;;;;;;;;;3.00;1.75;;;;;21.42;81.71;101133.97;5093096;27;45428;-67
2023/08/12 03:08:25;;;;;;;;;2.50;2.50;;;;;21.40;80.98;101131.41;5098083;27;59565;-67
2023/08/12 03:10:58;;;;;;;;;2.00;2.00;;;;;21.43;80.93;101127.72;5087193;27;45215;-67
2023/08/12 03:13:23;;;;;;;;;1.00;1.00;;;;;21.41;80.90;101122.50;5096211;27;46190;-68
2023/08/12 03:15:48;;;;;;;;;2.00;2.00;;;;;21.43;80.99;101125.91;5093211;27;53571;-67
2023/08/12 03:18:14;;;;;;;;;3.00;1.75;;;;;21.43;80.93;101125.91;5094093;27;61896;-67
2023/08/12 03:20:39;;;;;;;;;0.50;0.50;;;;;21.43;80.96;101130.38;5085438;27;69778;-67
2023/08/12 03:23:04;;;;;;;;;1.00;1.00;;;;;21.43;81.08;101127.72;5085608;27;60085;-67
2023/08/12 03:25:30;;;;;;;;;1.00;1.00;;;;;21.41;81.27;101127.81;5097743;27;71062;-67
2023/08/12 03:27:55;;;;;;;;;2.00;0.50;;;;;21.42;81.18;101124.22;5092460;27;56145;-67
2023/08/12 03:30:20;;;;;;;;;0.00;0.00;;;;;21.41;80.67;101129.63;5081324;27;63422;-67
2023/08/12 03:32:46;;;;;;;;;0.75;0.50;;;;;21.41;81.77;101134.97;5094076;27;45256;-67
2023/08/12 03:35:11;;;;;;;;;0.00;0.00;;;;;21.39;81.41;101123.56;5088206;27;69394;-67
2023/08/12 03:37:36;;;;;;;;;0.75;0.75;;;;;21.38;81.05;101114.69;5096277;27;58866;-67
2023/08/12 03:40:02;;;;;;;;;2.00;0.00;;;;;21.39;81.46;101112.91;5097065;27;64728;-67
2023/08/12 03:42:27;;;;;;;;;0.00;0.00;;;;;21.37;81.28;101113.00;5097979;27;47686;-67
2023/08/12 03:44:52;;;;;;;;;0.00;0.00;;;;;21.38;81.33;101105.88;5098807;27;67282;-67
2023/08/12 03:47:21;;;;;;;;;0.00;0.00;;;;;21.40;81.15;101115.44;5086710;27;45341;-67
2023/08/12 03:49:47;;;;;;;;;0.00;0.00;;;;;21.36;81.38;101113.94;5079907;27;45560;-67
2023/08/12 03:52:12;;;;;;;;;0.50;0.00;;;;;21.41;81.50;101116.31;5092012;27;47288;-67
2023/08/12 03:54:38;;;;;;;;;1.00;1.00;;;;;21.40;82.22;101112.78;5086075;27;68015;-67
2023/08/12 03:57:03;;;;;;;;;1.00;0.75;;;;;21.38;81.60;101105.88;5081579;27;45343;-67
2023/08/12 03:59:28;;;;;;;;;1.00;1.00;;;;;21.38;81.83;101105.88;5078161;27;45392;-67
2023/08/12 04:01:54;;;;;;;;;0.00;0.00;;;;;21.35;81.96;101090.94;5088976;27;47939;-67
2023/08/12 04:04:19;;;;;;;;;0.25;0.00;;;;;21.37;81.72;101096.16;5086821;27;71573;-68
2023/08/12 04:06:44;;;;;;;;;0.00;0.00;;;;;21.37;81.62;101096.16;5093686;27;65876;-68
2023/08/12 04:09:10;;;;;;;;;0.00;0.00;;;;;21.35;82.14;101090.94;5086384;27;45370;-68
2023/08/12 04:11:35;;;;;;;;;0.00;0.00;;;;;21.34;81.85;101094.56;5083704;27;73750;-68
2023/08/12 04:14:00;;;;;;;;;0.00;0.00;;;;;21.36;82.06;101095.31;5096932;27;57731;-67
2023/08/12 04:16:26;;;;;;;;;1.00;1.00;;;;;21.34;81.49;101089.25;5098401;27;45354;-68
2023/08/12 04:18:51;;;;;;;;;0.50;0.50;;;;;21.36;81.51;101090.00;5080926;27;45924;-68
2023/08/12 04:21:16;;;;;;;;;2.00;0.00;;;;;21.34;82.04;101072.44;5063663;28;62648;-67
2023/08/12 04:23:42;;;;;;;;;0.00;0.00;;;;;21.35;81.70;101076.78;5095308;27;63987;-67
2023/08/12 04:26:07;;;;;;;;;0.25;0.00;;;;;21.33;81.65;101073.38;5090588;27;45501;-67
2023/08/12 04:28:32;;;;;;;;;0.00;0.00;;;;;21.33;81.45;101074.22;5095722;27;45436;-68
2023/08/12 04:30:58;;;;;;;;;0.00;0.00;;;;;21.32;81.50;101082.28;5094575;27;68318;-68
2023/08/12 04:33:23;;;;;;;;;0.00;0.00;;;;;21.33;81.55;101082.19;5082087;27;53240;-68
2023/08/12 04:35:49;;;;;;;;;0.00;0.00;;;;;21.33;81.66;101063.56;5085395;27;45499;-67
2023/08/12 04:38:15;;;;;;;;;1.00;1.00;;;;;21.33;81.47;101065.38;5079499;28;73406;-68
2023/08/12 04:40:41;;;;;;;;;0.00;0.00;;;;;21.35;81.21;101074.97;5077106;27;46793;-67
2023/08/12 04:43:10;;;;;;;;;1.00;0.00;;;;;21.35;81.02;101071.44;5093971;27;45520;-67
2023/08/12 04:45:36;;;;;;;;;0.00;0.00;;;;;21.34;80.69;101077.75;5087866;27;45262;-68
2023/08/12 04:48:01;;;;;;;;;0.00;0.00;;;;;21.37;80.70;101081.06;5086627;27;45629;-68
2023/08/12 04:50:34;;;;;;;;;2.25;2.00;;;;;21.37;80.93;101074.84;5098237;27;67761;-68
2023/08/12 04:53:00;;;;;;;;;6.00;4.00;;;;;21.40;81.21;101080.81;5096604;27;45309;-67
2023/08/12 04:55:25;;;;;;;;;1.00;1.00;;;;;21.38;80.64;101084.56;5084694;27;45315;-68
2023/08/12 04:57:51;;;;;;;;;1.25;1.00;;;;;21.39;80.44;101087.13;5090569;27;45473;-67
2023/08/12 05:00:17;;;;;;;;;1.25;1.25;;;;;21.37;80.60;101088.16;5090399;27;45214;-68
2023/08/12 05:02:42;;;;;;;;;3.50;3.00;;;;;21.38;80.77;101081.91;5086550;27;45452;-67
2023/08/12 05:05:08;;;;;;;;;1.50;1.00;;;;;21.36;80.59;101081.16;5084600;27;45394;-67
2023/08/12 05:07:33;;;;;;;;;0.00;0.00;;;;;21.38;80.81;101080.09;5080101;27;45547;-68
2023/08/12 05:09:59;;;;;;;;;0.00;0.00;;;;;21.38;81.51;101077.41;5085185;27;45404;-68
2023/08/12 05:12:24;;;;;;;;;0.00;0.00;;;;;21.38;80.40;101080.09;5088169;27;45477;-68
2023/08/12 05:14:50;;;;;;;;;0.00;0.00;;;;;21.37;80.57;101075.72;5094622;27;59683;-68
2023/08/12 05:17:15;;;;;;;;;0.00;0.00;;;;;21.43;80.18;101093.09;5080156;28;48141;-68
2023/08/12 05:19:40;;;;;;;;;1.00;0.00;;;;;21.44;80.51;101084.13;5087866;27;66093;-68
2023/08/12 05:22:06;;;;;;;;;0.00;0.00;;;;;21.47;80.23;101097.28;5089113;27;64191;-67
2023/08/12 05:24:31;;;;;;;;;18.25;15.00;;;;;21.46;81.37;101092.06;5079055;28;58599;-68
2023/08/12 05:26:57;;;;;;;;;35.00;30.25;;;;;21.47;80.28;101088.44;5092757;27;66174;-68
2023/08/12 05:29:22;;;;;;;;;5.50;4.25;;;;;21.49;80.78;101097.19;5090129;27;45272;-67
2023/08/12 05:31:47;;;;;;;;;0.75;0.75;;;;;21.53;80.19;101101.34;5098283;27;51095;-67
2023/08/12 05:34:13;;;;;;;;;0.75;0.50;;;;;21.54;80.68;101101.25;5093730;27;61370;-68
2023/08/12 05:36:38;;;;;;;;;0.00;0.00;;;;;21.56;80.42;101098.47;5083919;27;68598;-68
2023/08/12 05:39:04;;;;;;;;;1.75;0.50;;;;;21.56;80.79;101091.34;5100922;27;57530;-67
2023/08/12 05:41:29;;;;;;;;;0.00;0.00;;;;;21.60;80.19;101089.31;5085319;27;45319;-68
2023/08/12 05:43:54;;;;;;;;;0.25;0.25;;;;;21.61;80.35;101088.38;5088386;27;67004;-67
2023/08/12 05:46:20;;;;;;;;;0.00;0.00;;;;;21.65;80.13;101099.66;5101321;27;45730;-67
2023/08/12 05:48:45;;;;;;;;;0.00;0.00;;;;;21.67;80.00;101097.75;5091122;27;46821;-68
2023/08/12 05:51:10;;;;;;;;;1.00;0.00;;;;;21.66;80.11;101102.22;5088093;27;45310;-68
2023/08/12 05:53:36;;;;;;;;;0.00;0.00;;;;;21.66;80.00;101109.38;5090573;27;60499;-67
2023/08/12 05:56:01;;;;;;;;;0.00;0.00;;;;;21.67;79.87;101103.91;5094217;27;45262;-68
2023/08/12 05:58:27;;;;;;;;;0.00;0.00;;;;;21.69;79.51;101115.34;5091214;27;45422;-68
2023/08/12 06:00:52;;;;;;;;;0.00;0.00;;;;;21.66;79.26;101110.22;5087314;27;68375;-68
2023/08/12 06:03:17;;;;;;;;;1.00;1.00;;;;;21.65;79.34;101105.84;5081748;27;66690;-68
2023/08/12 06:05:47;;;;;;;;;0.00;0.00;;;;;21.65;79.55;101103.19;5081072;27;69051;-69
2023/08/12 06:08:13;;;;;;;;;0.00;0.00;;;;;21.65;79.09;101097.84;5099371;27;46402;-69
2023/08/12 06:10:38;;;;;;;;;0.00;0.00;;;;;21.67;79.50;101098.59;5089761;27;45282;-69
2023/08/12 06:13:03;;;;;;;;;25.25;24.00;;;;;21.68;79.24;101100.31;5091518;27;67891;-69
2023/08/12 06:15:29;;;;;;;;;5.50;4.25;;;;;21.68;79.34;101108.31;5087255;27;45221;-69
2023/08/12 06:17:54;;;;;;;;;8.50;6.00;;;;;21.70;78.89;101102.88;5093226;27;68836;-69
2023/08/12 06:20:20;;;;;;;;;3.00;3.00;;;;;21.70;79.02;101095.72;5089143;27;45237;-69
2023/08/12 06:22:45;;;;;;;;;1.75;0.75;;;;;21.73;79.17;101098.19;5096416;27;63096;-68
2023/08/12 06:25:10;;;;;;;;;0.75;0.75;;;;;21.74;79.08;101094.59;5094331;27;54821;-68
2023/08/12 06:27:36;;;;;;;;;1.00;0.00;;;;;21.75;78.95;101104.25;5095644;27;47485;-68
2023/08/12 06:30:01;;;;;;;;;0.25;0.00;;;;;21.77;78.36;101091.69;5091630;27;45256;-69
2023/08/12 06:32:26;;;;;;;;;0.50;0.00;;;;;21.79;78.23;101096.91;5083254;27;69396;-68
2023/08/12 06:34:52;;;;;;;;;1.25;0.00;;;;;21.81;78.49;101095.00;5087462;27;45582;-69
2023/08/12 06:37:17;;;;;;;;;1.25;1.00;;;;;21.80;78.43;101101.28;5085487;27;47753;-69
2023/08/12 06:39:42;;;;;;;;;0.50;0.50;;;;;21.78;78.40;101097.88;5080668;27;45385;-68
2023/08/12 06:42:08;;;;;;;;;1.00;1.00;;;;;21.82;78.80;101103.84;5089114;27;45384;-69
2023/08/12 06:44:33;;;;;;;;;0.00;0.00;;;;;21.84;78.34;101101.94;5094938;27;69107;-68
2023/08/12 06:46:58;;;;;;;;;1.75;1.00;;;;;21.85;78.61;101104.50;5078439;28;54526;-69
2023/08/12 06:49:24;;;;;;;;;5.00;3.00;;;;;21.85;78.17;101106.28;5080125;27;45224;-69
2023/08/12 06:51:49;;;;;;;;;3.25;2.50;;;;;21.92;78.07;101107.56;5085560;27;45373;-69
2023/08/12 06:54:14;;;;;;;;;1.50;1.50;;;;;21.96;78.21;101106.44;5082952;27;59266;-69
2023/08/12 06:56:40;;;;;;;;;0.00;0.00;;;;;22.00;77.55;101108.75;5084435;27;45432;-69
2023/08/12 06:59:05;;;;;;;;;2.25;1.00;;;;;22.06;77.68;101099.50;5078848;27;47685;-69
2023/08/12 07:01:31;;;;;;;;;0.00;0.00;;;;;22.13;77.82;101097.25;5079938;27;45432;-69
2023/08/12 07:03:56;;;;;;;;;0.00;0.00;;;;;22.20;77.95;101103.84;5079314;27;45346;-69
2023/08/12 07:06:22;;;;;;;;;3.25;1.25;;;;;22.30;77.38;101104.09;5088939;27;45493;-69
2023/08/12 07:08:47;;;;;;;;;0.00;0.00;;;;;22.30;77.12;101099.59;5088674;27;45271;-69
2023/08/12 07:11:12;;;;;;;;;0.00;0.00;;;;;22.31;77.33;101106.66;5092615;27;50985;-69
2023/08/12 07:13:38;;;;;;;;;1.00;1.00;;;;;22.28;77.21;101106.03;5081379;27;45263;-69
2023/08/12 07:16:03;;;;;;;;;4.00;4.00;;;;;22.19;75.65;101127.00;5079925;27;46469;-69
2023/08/12 07:18:29;;;;;;;;;1.00;1.00;;;;;22.00;75.57;101129.22;5084864;27;45293;-68
2023/08/12 07:20:54;;;;;;;;;1.25;0.00;;;;;21.79;75.53;101128.88;5083265;27;45324;-68
2023/08/12 07:23:20;;;;;;;;;2.00;0.00;;;;;21.56;75.78;101133.94;5089952;27;45486;-70
2023/08/12 07:25:46;;;;;;;;;0.00;0.00;;;;;21.42;75.21;101141.97;5085626;27;45395;-71
2023/08/12 07:28:12;;;;;;;;;1.00;1.00;;;;;21.25;75.27;101148.41;5090692;27;45587;-68
2023/08/12 07:30:37;;;;;;;;;1.25;1.00;;;;;21.13;75.88;101152.72;5089557;27;45946;-69
2023/08/12 07:33:03;;;;;;;;;1.50;0.00;;;;;21.07;76.04;101154.91;5089093;27;45465;-69
2023/08/12 07:35:29;;;;;;;;;2.75;2.00;;;;;20.98;76.63;101162.56;5108642;27;48092;-69
2023/08/12 07:37:54;;;;;;;;;5.00;1.50;;;;;20.89;75.98;101171.09;5090230;27;63830;-70
2023/08/12 07:40:19;;;;;;;;;3.00;2.00;;;;;20.79;76.34;101172.66;5092829;27;45452;-69
2023/08/12 07:42:45;;;;;;;;;2.50;1.00;;;;;20.70;75.86;101171.44;5094423;27;45571;-69
2023/08/12 07:45:10;;;;;;;;;0.75;0.00;;;;;20.57;76.65;101171.28;5093122;27;75710;-70
2023/08/12 07:47:37;;;;;;;;;1.25;1.00;;;;;20.53;77.15;101174.25;5098534;27;45500;-69
2023/08/12 07:50:02;;;;;;;;;2.00;1.25;;;;;20.47;76.17;101172.84;5086884;27;45370;-69
2023/08/12 07:52:27;;;;;;;;;5.75;5.75;;;;;20.41;76.75;101176.69;5090256;27;45461;-69
2023/08/12 07:54:53;;;;;;;;;2.50;1.00;;;;;20.43;76.34;101172.16;5085084;27;62279;-69
2023/08/12 07:57:20;;;;;;;;;4.75;2.50;;;;;20.40;76.75;101174.16;5090955;27;62407;-69
2023/08/12 07:59:45;;;;;;;;;3.75;3.75;;;;;20.43;76.52;101184.59;5089150;27;45237;-68
2023/08/12 08:02:11;;;;;;;;;3.50;2.50;;;;;20.43;76.76;101179.28;5100336;27;45250;-69
2023/08/12 08:04:37;;;;;;;;;4.75;1.00;;;;;20.46;77.33;101185.25;5098033;27;47733;-68
2023/08/12 08:07:03;;;;;;;;;11.00;7.00;;;;;20.47;77.12;101180.81;5091594;27;45369;-68
2023/08/12 08:09:28;;;;;;;;;2.25;2.00;;;;;20.48;76.82;101186.00;5095950;27;45416;-68
2023/08/12 08:11:53;;;;;;;;;3.75;2.00;;;;;20.48;77.14;101201.97;5096820;27;69707;-68
2023/08/12 08:14:19;;;;;;;;;3.00;2.00;;;;;20.44;77.54;101195.13;5089455;27;55064;-68
2023/08/12 08:16:45;;;;;;;;;4.50;2.25;;;;;20.41;77.76;101187.34;5081708;27;45617;-68
2023/08/12 08:19:10;;;;;;;;;3.00;1.00;;;;;20.51;77.13;101178.81;5099141;27;45421;-67
2023/08/12 08:21:36;;;;;;;;;1.25;1.25;;;;;20.61;77.13;101186.16;5096432;27;45502;-68
2023/08/12 08:24:02;;;;;;;;;4.00;2.00;;;;;20.65;76.41;101184.16;5098362;27;45399;-68
2023/08/12 08:26:27;;;;;;;;;3.00;1.00;;;;;20.65;75.61;101184.16;5095674;27;48368;-69
2023/08/12 08:28:53;;;;;;;;;1.50;0.75;;;;;20.63;75.82;101180.75;5086111;27;45357;-69
2023/08/12 08:31:19;;;;;;;;;4.00;3.00;;;;;20.71;75.85;101175.78;5080704;27;45518;-70
2023/08/12 08:33:44;;;;;;;;;2.25;1.00;;;;;20.70;75.65;101167.91;5093981;27;46107;-70
2023/08/12 08:36:09;;;;;;;;;2.25;2.00;;;;;20.73;76.17;101181.00;5089999;27;66500;-70
2023/08/12 08:38:36;;;;;;;;;2.25;1.00;;;;;20.77;75.42;101185.19;5089424;27;63253;-70
2023/08/12 08:41:03;;;;;;;;;1.50;1.00;;;;;20.83;75.78;101187.47;5093090;27;45465;-69
2023/08/12 08:43:29;;;;;;;;;3.75;1.00;;;;;20.94;75.98;101194.78;5089827;27;45438;-72
2023/08/12 08:45:55;;;;;;;;;1.00;1.00;;;;;21.06;74.90;101201.97;5097779;27;45673;-68
2023/08/12 08:48:20;;;;;;;;;2.00;1.25;;;;;21.22;74.91;101186.72;5064979;27;45781;-70
2023/08/12 08:50:48;;;;;;;;;3.25;3.25;;;;;21.32;74.15;101186.13;5087473;27;48471;-68
2023/08/12 08:53:14;;;;;;;;;0.75;0.75;;;;;21.42;73.61;101187.22;5085170;27;47128;-71
2023/08/12 08:55:41;;;;;;;;;1.00;1.00;;;;;21.53;73.09;101190.09;5090321;27;45949;-70
2023/08/12 08:58:06;;;;;;;;;3.00;1.25;;;;;21.69;73.46;101192.59;5094442;27;45399;-72
2023/08/12 09:00:32;;;;;;;;;5.25;2.00;;;;;21.80;72.82;101195.38;5097829;27;45554;-73
2023/08/12 09:02:58;;;;;;;;;3.50;1.25;;;;;21.99;72.84;101196.81;5086403;27;45576;-72
2023/08/12 09:05:23;;;;;;;;;11.75;11.75;;;;;22.13;72.43;101188.75;5094047;27;45394;-72
2023/08/12 09:07:49;;;;;;;;;6.00;2.00;;;;;22.24;71.76;101190.66;5067406;28;53946;-72
2023/08/12 09:10:17;;;;;;;;;4.50;1.75;;;;;22.31;71.25;101193.78;5087579;27;45479;-74
2023/08/12 09:12:43;;;;;;;;;4.50;2.00;;;;;22.40;70.81;101201.16;5086117;27;45524;-74
2023/08/12 09:15:09;;;;;;;;;6.75;2.00;;;;;22.43;70.54;101197.41;5090498;27;45299;-75
2023/08/12 09:17:34;;;;;;;;;6.25;4.00;;;;;22.56;70.41;101203.59;5098390;27;45448;-74
2023/08/12 09:20:00;;;;;;;;;8.00;4.75;;;;;22.75;70.28;101198.69;5085685;27;45448;-74
2023/08/12 09:22:26;;;;;;;;;41.75;32.25;;;;;22.94;70.59;101203.53;5084925;27;46304;-71
2023/08/12 09:24:57;;;;;;;;;4.50;3.75;;;;;23.11;69.13;101193.50;5086705;27;45387;-76
2023/08/12 09:27:24;;;;;;;;;3.00;2.00;;;;;23.25;69.10;101197.84;5081297;27;45408;-75
2023/08/12 09:29:50;;;;;;;;;2.50;2.00;;;;;23.38;69.18;101190.63;5098773;27;45274;-74
2023/08/12 09:32:19;;;;;;;;;2.25;1.00;;;;;23.53;68.79;101193.13;5079495;27;45695;-75
2023/08/12 09:34:54;;;;;;;;;2.25;1.25;;;;;23.64;68.84;101193.19;5073400;27;45977;-75
2023/08/12 09:37:22;;;;;;;;;1.50;1.50;;;;;23.69;68.15;101189.19;5078204;27;45564;-75
2023/08/12 09:39:48;;;;;;;;;2.00;1.25;;;;;23.75;67.54;101198.56;5078738;27;45507;-75
2023/08/12 09:42:14;;;;;;;;;1.00;1.00;;;;;23.81;66.94;101200.78;5089461;27;45372;-75
2023/08/12 09:44:40;;;;;;;;;4.00;1.25;;;;;23.88;66.28;101204.69;5088591;27;45363;-75
2023/08/12 09:47:06;;;;;;;;;3.75;0.75;;;;;23.97;66.36;101204.97;5081688;27;45474;-75
2023/08/12 09:49:31;;;;;;;;;2.75;1.75;;;;;24.07;65.72;101211.34;5090139;27;45306;-71
2023/08/12 09:51:57;;;;;;;;;2.00;1.00;;;;;24.13;65.88;101213.53;5091473;27;45764;-71
2023/08/12 09:54:25;;;;;;;;;1.25;0.00;;;;;24.18;64.78;101222.06;5090180;27;45794;-71
2023/08/12 09:56:56;;;;;;;;;1.00;0.75;;;;;24.16;64.42;101218.66;5079152;27;45363;-72
2023/08/12 09:59:22;;;;;;;;;3.75;1.50;;;;;24.13;63.93;101218.03;5083161;27;45539;-72
2023/08/12 10:01:50;;;;;;;;;3.50;1.25;;;;;24.10;64.21;101220.94;5087286;27;46203;-72
2023/08/12 10:04:17;;;;;;;;;4.00;0.75;;;;;24.11;64.02;101223.50;5084104;27;45801;-73
2023/08/12 10:06:43;;;;;;;;;3.25;1.50;;;;;24.13;64.72;101221.56;5087721;27;45401;-74
2023/08/12 10:09:09;;;;;;;;;2.25;1.25;;;;;24.11;64.35;101226.16;5083723;27;45302;-69
2023/08/12 10:11:35;;;;;;;;;3.75;3.75;;;;;24.02;63.78;101210.84;5080208;27;45459;-75
2023/08/12 10:14:03;;;;;;;;;2.00;2.00;;;;;23.99;64.15;101211.06;5082536;27;45565;-75
2023/08/12 10:16:29;;;;;;;;;5.75;4.25;;;;;23.86;63.59;101214.66;5063489;27;45396;-70
2023/08/12 10:18:55;;;;;;;;;2.50;1.25;;;;;23.71;63.96;101205.13;5079102;27;68989;-71
2023/08/12 10:21:22;;;;;;;;;1.75;1.75;;;;;23.61;64.05;101212.13;5080223;27;45727;-76
2023/08/12 10:23:48;;;;;;;;;1.25;1.25;;;;;23.60;63.92;101211.28;5090475;27;45696;-82
2023/08/12 10:26:14;;;;;;;;;2.50;1.25;;;;;23.56;63.49;101209.78;5080025;27;45403;-82
2023/08/12 10:28:39;;;;;;;;;0.75;0.50;;;;;23.54;63.83;101214.38;5085469;27;45273;-83
2023/08/12 10:31:05;;;;;;;;;2.50;1.75;;;;;23.64;64.11;101212.72;5079276;27;65016;-83
2023/08/12 10:33:36;;;;;;;;;1.25;1.25;;;;;23.68;63.16;101214.19;5073303;27;45477;-83
2023/08/12 10:36:02;;;;;;;;;1.00;1.00;;;;;23.75;63.14;101221.78;5072826;27;46138;-81
2023/08/12 10:38:28;;;;;;;;;0.50;0.50;;;;;23.74;63.25;101209.38;5069450;28;45362;-83
2023/08/12 10:41:20;;;;;;;;;2.75;1.25;;;;;23.88;63.57;101210.03;5096811;27;46195;-83
2023/08/12 10:44:15;;;;;;;;;2.00;0.25;;;;;23.96;63.13;101209.50;5071467;27;45791;-80
2023/08/12 10:46:49;;;;;;;;;2.50;2.50;;;;;23.93;62.82;101206.19;5080787;27;65860;-82
2023/08/12 10:49:15;;;;;;;;;2.00;0.75;;;;;23.92;62.87;101207.16;5069141;27;45408;-83
2023/08/12 10:51:42;;;;;;;;;4.75;3.00;;;;;23.93;62.33;101204.38;5091690;27;45467;-83
2023/08/12 10:54:17;;;;;;;;;3.00;1.25;;;;;23.93;62.48;101200.84;5093475;27;45572;-84
2023/08/12 10:57:01;;;;;;;;;1.25;1.00;;;;;23.97;62.66;101199.63;5083823;27;45422;-82
2023/08/12 10:59:44;;;;;;;;;3.25;1.75;;;;;24.07;62.69;101197.97;5089968;27;45543;-81
2023/08/12 11:02:26;;;;;;;;;4.25;2.75;;;;;24.14;62.57;101199.19;5090662;27;48619;-80
2023/08/12 11:05:08;;;;;;;;;1.75;1.75;;;;;24.09;61.61;101189.84;5081088;27;45423;-76
2023/08/12 11:07:44;;;;;;;;;3.25;1.50;;;;;24.10;61.77;101191.53;5088673;27;45305;-73
2023/08/12 11:10:09;;;;;;;;;2.50;2.00;;;;;24.12;61.45;101198.47;5086594;27;45423;-81
2023/08/12 11:12:35;;;;;;;;;4.67;2.67;;;;;24.17;61.06;101200.78;5083732;27;45495;-79
2023/08/12 11:15:03;;;;;;;;;1.25;1.25;;;;;24.18;61.34;101187.28;5094697;27;45394;-71
2023/08/12 11:17:37;;;;;;;;;1.25;1.25;;;;;24.21;61.69;101195.06;5098532;27;45343;-71
2023/08/12 11:20:06;;;;;;;;;3.25;2.25;;;;;24.23;61.62;101187.78;5082700;27;45425;-74